Main page
METAR-TAF:

METAR-TAF

Airports :

Bella Bella (Campbell Island) Airport

Bella Bella, British Columbia, Canada

latitude: 52-11-06N, longitude: 128-09-24W, elevation: 43 m

Current weather observation

The report was made 58 minutes ago, at 08:00 UTC
Wind 2 kt from variable directions
Temperature 5°C
Humidity 93%
Pressure 1017 hPa
Visibility: 14.5 km
Clear sky

METAR: CBBC 220800Z AUTO VRB02KT 9SM CLR 05/04 A3002 RMK ICE MISG SLP167

Time: 01:58 (08:58 UTC)

Forecast

The report was made 8 hours and 18 minutes ago, at 00:40 UTC
Forecast valid from 22 at 01 UTC to 22 at 05 UTC
Wind 10 kt from the Northwest with gusts up to 20 kt
Visibility: 10 km
Clear sky

TAF: CBBC 220040Z 2201/2205 32010G20KT P6SM SKC RMK FCST BASED ON AUTO OBS. NXT FCST BY 221300Z

Weather observations and forecasts of more than 4000 airports (METAR and TAF reports).

The available stations are represented by yellow and red dots on the map.

Hover mouse over dot to see the name of the station.

Then click to see weather observations and forecasts.

To change the map : click on the green buttons with a black cross to zoom in, on the green button with a dash to zoom out, or on the green arrows for adjacent maps.


METAR-TAF: